Arctic Bay — 9HTD8 — position and weather

sailwx.info

Track history (hours):
 
Tides and Currents Weather Stations Pressure Air Temp Water Temp Dewpoint Dewpoint Depression Visibility Wind Speed Wind Dir Waves Ship Positions

Arctic Bay

Last reported at 2014-Sep-21 04:34 UTC. Time now 2014-Sep-21 18:14 UTC.
Position N 56°02' E 006°52'.

Length 182 m; draft 7.5 m.

Type: Ship. MMSI: 256396000.

Date/timePositionNaut miles runAvg speedWind from/ knotsBaromVisibWave heightAir tempDewpointWater temp
2014-Sep-21 04:34N 56°02' E 006°52'9 8.7
2014-Sep-21 03:33N 55°55' E 006°44'134 9.5
2014-Sep-20 13:22N 54°00' E 004°43'2310.4
2014-Sep-20 11:09N 53°43' E 004°16'29 9.8
2014-Sep-20 08:10N 53°23' E 003°41'8 9.9
2014-Sep-20 07:24N 53°16' E 003°35'4110.6
2014-Sep-20 03:31N 52°38' E 003°10'1010.7
2014-Sep-20 02:33N 52°28' E 003°04'11 9.9
2014-Sep-20 01:29N 52°19' E 003°11'1717.0
2014-Sep-20 00:30N 52°08' E 003°33'5 5.4
2014-Sep-19 23:33N 52°06' E 003°40'1110.6
2014-Sep-19 22:33N 52°02' E 003°56'9 9.4
2014-Sep-19 21:33N 51°57' E 004°09'2 2.5
2014-Sep-19 20:33N 51°55' E 004°12'0 0.0
2014-Sep-19 19:24N 51°56' E 004°12'0 0.0
2014-Sep-19 18:33N 51°55' E 004°12'0 0.0
2014-Sep-19 17:24N 51°55' E 004°12'0 0.0
2014-Sep-19 16:33N 51°55' E 004°12'0 0.0
2014-Sep-19 15:30N 51°55' E 004°12'0 0.0
2014-Sep-19 14:30N 51°55' E 004°12'0 0.0
2014-Sep-19 13:21N 51°55' E 004°12'0 0.0
2014-Sep-19 12:27N 51°55' E 004°12'0 0.0
2014-Sep-19 11:30N 51°55' E 004°12'0 0.0
2014-Sep-19 10:33N 51°55' E 004°12'0 0.0
2014-Sep-19 09:27N 51°55' E 004°12'0 0.0
2014-Sep-19 08:33N 51°55' E 004°12'0 0.0
2014-Sep-19 07:30N 51°55' E 004°12'0 0.0
2014-Sep-19 06:21N 51°55' E 004°12'0 0.0
2014-Sep-19 05:33N 51°55' E 004°12'0 0.0
2014-Sep-19 04:30N 51°55' E 004°12'0 0.0
2014-Sep-19 03:30N 51°55' E 004°12'0 0.0
2014-Sep-19 02:30N 51°55' E 004°12'0 0.0
2014-Sep-19 01:27N 51°55' E 004°12'0 0.0
2014-Sep-19 00:27N 51°55' E 004°12'0 0.0
2014-Sep-18 23:33N 51°55' E 004°12'0 0.0
2014-Sep-18 22:33N 51°56' E 004°12'0 0.0
2014-Sep-18 21:33N 51°55' E 004°12'0 0.0
2014-Sep-18 20:33N 51°55' E 004°12'0 0.0
2014-Sep-18 19:27N 51°55' E 004°12'0 0.0
2014-Sep-18 18:33N 51°55' E 004°12'0 0.0
2014-Sep-18 17:18N 51°55' E 004°12'0 0.0
2014-Sep-18 16:33N 51°55' E 004°12'0 0.0
2014-Sep-18 15:27N 51°55' E 004°12'0 0.2
2014-Sep-18 14:33N 51°56' E 004°12'7 7.3
2014-Sep-18 13:34N 51°59' E 004°02'1111.4
2014-Sep-18 12:34N 52°02' E 003°44'1110.9
2014-Sep-18 11:33N 52°08' E 003°29'1312.6
2014-Sep-18 10:33N 52°14' E 003°11'1211.9
2014-Sep-18 09:33N 52°24' E 002°60'1312.7
2014-Sep-18 08:33N 52°37' E 003°00'2412.3
2014-Sep-18 06:33N 52°59' E 003°17'1413.6
2014-Sep-18 05:33N 53°12' E 003°24'5112.1
2014-Sep-18 01:22N 53°56' E 004°08'7112.2
2014-Sep-17 19:33N 54°57' E 005°08'1312.4
2014-Sep-17 18:29N 55°08' E 005°20'1212.4
2014-Sep-17 17:33N 55°19' E 005°30'1212.4
2014-Sep-17 16:33N 55°30' E 005°40'1712.4
2014-Sep-17 15:11N 55°44' E 005°55'812.3
2014-Sep-17 14:31N 55°52' E 006°02'1312.9
2014-Sep-17 13:31N 56°03' E 006°13'2412.3
2014-Sep-17 11:33N 56°24' E 006°34'1212.1
2014-Sep-17 10:33N 56°35' E 006°45'1712.0
2014-Sep-17 09:09N 56°49' E 006°59'712.2
2014-Sep-17 08:33N 56°54' E 007°10'1212.5
2014-Sep-17 07:33N 57°02' E 007°27'1312.7
2014-Sep-17 06:33N 57°10' E 007°45'1413.3
2014-Sep-17 05:31N 57°18' E 008°06'1212.4
2014-Sep-17 04:33N 57°25' E 008°24'5212.4
2014-Sep-17 00:20N 57°46' E 009°53'1612.9
2014-Sep-16 23:06N 57°48' E 010°23'713.6
2014-Sep-16 22:33N 57°48' E 010°37'1211.9
2014-Sep-16 21:33N 57°43' E 010°57'1212.3
2014-Sep-16 20:33N 57°35' E 011°13'1312.5
2014-Sep-16 19:33N 57°25' E 011°29'1312.5
2014-Sep-16 18:32N 57°13' E 011°37'1312.8
2014-Sep-16 17:33N 57°01' E 011°44'1212.4
2014-Sep-16 16:33N 56°50' E 011°51'1110.9
2014-Sep-16 15:32N 56°40' E 011°41'1212.4
2014-Sep-16 14:33N 56°32' E 011°24'1412.1
2014-Sep-16 13:24N 56°23' E 011°06'1412.2
2014-Sep-16 12:17N 56°09' E 011°04'6012.6
2014-Sep-16 07:32N 55°09' E 011°03'3210.7
2014-Sep-16 04:32N 54°37' E 011°06'1212.6
2014-Sep-16 03:34N 54°32' E 011°25'1212.4
2014-Sep-16 02:34N 54°26' E 011°45'10 9.8
2014-Sep-16 01:34N 54°20' E 011°58'1110.8
2014-Sep-16 00:34N 54°11' E 012°06'2 1.5
2014-Sep-15 23:32N 54°09' E 012°08'0 0.0
2014-Sep-15 22:32N 54°09' E 012°08'0 0.0
2014-Sep-15 21:32N 54°09' E 012°08'0 0.0
2014-Sep-15 20:20N 54°09' E 012°08'0 0.0
2014-Sep-15 19:17N 54°09' E 012°08'0 0.0
2014-Sep-15 18:20N 54°09' E 012°08'0 0.0
2014-Sep-15 17:26N 54°09' E 012°08'0 0.0
2014-Sep-15 16:32N 54°09' E 012°08'0 0.0
2014-Sep-15 15:14N 54°09' E 012°08'0 0.0
2014-Sep-15 14:32N 54°09' E 012°08'0 0.0
2014-Sep-15 13:26N 54°09' E 012°08'0 0.0
2014-Sep-15 12:26N 54°09' E 012°08'0 0.0
2014-Sep-15 11:32N 54°09' E 012°08'0 0.0
2014-Sep-15 10:32N 54°09' E 012°08'0 0.0
2014-Sep-15 09:24N 54°09' E 012°08'2 2.9
2014-Sep-15 08:33N 54°12' E 012°05'6 5.6
2014-Sep-15 07:33N 54°15' E 011°58'2 1.7
2014-Sep-15 06:33N 54°14' E 011°56'0 0.0
2014-Sep-15 05:33N 54°14' E 011°56'0 0.1
2014-Sep-15 04:30N 54°14' E 011°56'0 0.0
2014-Sep-15 03:33N 54°14' E 011°56'0 0.0
2014-Sep-15 02:30N 54°14' E 011°56'0 0.0
2014-Sep-15 01:33N 54°14' E 011°56'0 0.0
2014-Sep-15 00:27N 54°14' E 011°56'0 0.0
2014-Sep-14 23:33N 54°14' E 011°56'0 0.0
2014-Sep-14 22:33N 54°14' E 011°56'0 0.0
2014-Sep-14 21:33N 54°14' E 011°56'0 0.0
2014-Sep-14 20:33N 54°14' E 011°56'0 0.0
2014-Sep-14 19:33N 54°14' E 011°56'0 0.0
2014-Sep-14 18:33N 54°14' E 011°56'0 0.0
2014-Sep-14 17:33N 54°14' E 011°56'0 0.0
2014-Sep-14 16:27N 54°14' E 011°56'0 0.0
2014-Sep-14 15:30N 54°14' E 011°56'0 0.0
2014-Sep-14 14:33N 54°14' E 011°56'0 0.0
2014-Sep-14 13:33N 54°14' E 011°56'0 0.0
2014-Sep-14 12:33N 54°14' E 011°56'0 0.0
2014-Sep-14 11:33N 54°14' E 011°56'0 0.0
2014-Sep-14 10:30N 54°14' E 011°56'0 0.0
2014-Sep-14 09:33N 54°14' E 011°56'0 0.0
2014-Sep-14 08:33N 54°14' E 011°56'0 0.0
2014-Sep-14 07:33N 54°14' E 011°56'0 0.0
2014-Sep-14 06:33N 54°14' E 011°56'0 0.0
2014-Sep-14 05:30N 54°14' E 011°56'0 0.0
2014-Sep-14 04:24N 54°14' E 011°56'0 0.0
2014-Sep-14 03:33N 54°14' E 011°56'0 0.0
2014-Sep-14 02:33N 54°14' E 011°56'0 0.0
2014-Sep-14 01:27N 54°14' E 011°56'11 2.9
2014-Sep-13 21:34N 54°25' E 011°59'1110.7
2014-Sep-13 20:33N 54°32' E 012°14'1212.0
2014-Sep-13 19:34N 54°41' E 012°28'1312.8
2014-Sep-13 18:33N 54°47' E 012°46'1312.7
2014-Sep-13 17:34N 54°52' E 013°07'1312.8
2014-Sep-13 16:33N 54°57' E 013°27'1211.7
2014-Sep-13 15:34N 55°00' E 013°47'1512.1
2014-Sep-13 14:19N 55°08' E 014°09'1112.9
2014-Sep-13 13:27N 55°17' E 014°22'1112.6
2014-Sep-13 12:33N 55°25' E 014°34'9212.5
2014-Sep-13 05:11N 55°54' E 017°09'812.1
2014-Sep-13 04:33N 55°56' E 017°22'1212.1
2014-Sep-13 03:33N 55°60' E 017°43'1412.2
2014-Sep-13 02:22N 56°08' E 018°05'26812.2
2014-Sep-12 04:29N 59°37' E 023°17'1112.4
2014-Sep-12 03:34N 59°41' E 023°39'1212.4
2014-Sep-12 02:34N 59°44' E 024°02'1312.5
2014-Sep-12 01:33N 59°47' E 024°26'5012.2
2014-Sep-11 21:26N 59°57' E 026°05'1112.1
2014-Sep-11 20:32N 60°00' E 026°26'1212.1
2014-Sep-11 19:33N 60°00' E 026°49'1211.6
2014-Sep-11 18:33N 60°02' E 027°12'  
Track history (hours):
 
Tides and Currents Weather Stations Pressure Air Temp Water Temp Dewpoint Dewpoint Depression Visibility Wind Speed Wind Dir Waves Ship Positions

Arctic Bay

Last reported at 2014-Sep-21 04:34 UTC. Time now 2014-Sep-21 18:14 UTC.
Position N 56°02' E 006°52'.

Length 182 m; draft 7.5 m.

Type: Ship. MMSI: 256396000.

Date/timePositionNaut miles runAvg speedWind from/ knotsBaromVisibWave heightAir tempDewpointWater temp
2014-Sep-21 04:34N 56°02' E 006°52'9 8.7
2014-Sep-21 03:33N 55°55' E 006°44'134 9.5
2014-Sep-20 13:22N 54°00' E 004°43'2310.4
2014-Sep-20 11:09N 53°43' E 004°16'29 9.8
2014-Sep-20 08:10N 53°23' E 003°41'8 9.9
2014-Sep-20 07:24N 53°16' E 003°35'4110.6
2014-Sep-20 03:31N 52°38' E 003°10'1010.7
2014-Sep-20 02:33N 52°28' E 003°04'11 9.9
2014-Sep-20 01:29N 52°19' E 003°11'1717.0
2014-Sep-20 00:30N 52°08' E 003°33'5 5.4
2014-Sep-19 23:33N 52°06' E 003°40'1110.6
2014-Sep-19 22:33N 52°02' E 003°56'9 9.4
2014-Sep-19 21:33N 51°57' E 004°09'2 2.5
2014-Sep-19 20:33N 51°55' E 004°12'0 0.0
2014-Sep-19 19:24N 51°56' E 004°12'0 0.0
2014-Sep-19 18:33N 51°55' E 004°12'0 0.0
2014-Sep-19 17:24N 51°55' E 004°12'0 0.0
2014-Sep-19 16:33N 51°55' E 004°12'0 0.0
2014-Sep-19 15:30N 51°55' E 004°12'0 0.0
2014-Sep-19 14:30N 51°55' E 004°12'0 0.0
2014-Sep-19 13:21N 51°55' E 004°12'0 0.0
2014-Sep-19 12:27N 51°55' E 004°12'0 0.0
2014-Sep-19 11:30N 51°55' E 004°12'0 0.0
2014-Sep-19 10:33N 51°55' E 004°12'0 0.0
2014-Sep-19 09:27N 51°55' E 004°12'0 0.0
2014-Sep-19 08:33N 51°55' E 004°12'0 0.0
2014-Sep-19 07:30N 51°55' E 004°12'0 0.0
2014-Sep-19 06:21N 51°55' E 004°12'0 0.0
2014-Sep-19 05:33N 51°55' E 004°12'0 0.0
2014-Sep-19 04:30N 51°55' E 004°12'0 0.0
2014-Sep-19 03:30N 51°55' E 004°12'0 0.0
2014-Sep-19 02:30N 51°55' E 004°12'0 0.0
2014-Sep-19 01:27N 51°55' E 004°12'0 0.0
2014-Sep-19 00:27N 51°55' E 004°12'0 0.0
2014-Sep-18 23:33N 51°55' E 004°12'0 0.0
2014-Sep-18 22:33N 51°56' E 004°12'0 0.0
2014-Sep-18 21:33N 51°55' E 004°12'0 0.0
2014-Sep-18 20:33N 51°55' E 004°12'0 0.0
2014-Sep-18 19:27N 51°55' E 004°12'0 0.0
2014-Sep-18 18:33N 51°55' E 004°12'0 0.0
2014-Sep-18 17:18N 51°55' E 004°12'0 0.0
2014-Sep-18 16:33N 51°55' E 004°12'0 0.0
2014-Sep-18 15:27N 51°55' E 004°12'0 0.2
2014-Sep-18 14:33N 51°56' E 004°12'7 7.3
2014-Sep-18 13:34N 51°59' E 004°02'1111.4
2014-Sep-18 12:34N 52°02' E 003°44'1110.9
2014-Sep-18 11:33N 52°08' E 003°29'1312.6
2014-Sep-18 10:33N 52°14' E 003°11'1211.9
2014-Sep-18 09:33N 52°24' E 002°60'1312.7
2014-Sep-18 08:33N 52°37' E 003°00'2412.3
2014-Sep-18 06:33N 52°59' E 003°17'1413.6
2014-Sep-18 05:33N 53°12' E 003°24'5112.1
2014-Sep-18 01:22N 53°56' E 004°08'7112.2
2014-Sep-17 19:33N 54°57' E 005°08'1312.4
2014-Sep-17 18:29N 55°08' E 005°20'1212.4
2014-Sep-17 17:33N 55°19' E 005°30'1212.4
2014-Sep-17 16:33N 55°30' E 005°40'1712.4
2014-Sep-17 15:11N 55°44' E 005°55'812.3
2014-Sep-17 14:31N 55°52' E 006°02'1312.9
2014-Sep-17 13:31N 56°03' E 006°13'2412.3
2014-Sep-17 11:33N 56°24' E 006°34'1212.1
2014-Sep-17 10:33N 56°35' E 006°45'1712.0
2014-Sep-17 09:09N 56°49' E 006°59'712.2
2014-Sep-17 08:33N 56°54' E 007°10'1212.5
2014-Sep-17 07:33N 57°02' E 007°27'1312.7
2014-Sep-17 06:33N 57°10' E 007°45'1413.3
2014-Sep-17 05:31N 57°18' E 008°06'1212.4
2014-Sep-17 04:33N 57°25' E 008°24'5212.4
2014-Sep-17 00:20N 57°46' E 009°53'1612.9
2014-Sep-16 23:06N 57°48' E 010°23'713.6
2014-Sep-16 22:33N 57°48' E 010°37'1211.9
2014-Sep-16 21:33N 57°43' E 010°57'1212.3
2014-Sep-16 20:33N 57°35' E 011°13'1312.5
2014-Sep-16 19:33N 57°25' E 011°29'1312.5
2014-Sep-16 18:32N 57°13' E 011°37'1312.8
2014-Sep-16 17:33N 57°01' E 011°44'1212.4
2014-Sep-16 16:33N 56°50' E 011°51'1110.9
2014-Sep-16 15:32N 56°40' E 011°41'1212.4
2014-Sep-16 14:33N 56°32' E 011°24'1412.1
2014-Sep-16 13:24N 56°23' E 011°06'1412.2
2014-Sep-16 12:17N 56°09' E 011°04'6012.6
2014-Sep-16 07:32N 55°09' E 011°03'3210.7
2014-Sep-16 04:32N 54°37' E 011°06'1212.6
2014-Sep-16 03:34N 54°32' E 011°25'1212.4
2014-Sep-16 02:34N 54°26' E 011°45'10 9.8
2014-Sep-16 01:34N 54°20' E 011°58'1110.8
2014-Sep-16 00:34N 54°11' E 012°06'2 1.5
2014-Sep-15 23:32N 54°09' E 012°08'0 0.0
2014-Sep-15 22:32N 54°09' E 012°08'0 0.0
2014-Sep-15 21:32N 54°09' E 012°08'0 0.0
2014-Sep-15 20:20N 54°09' E 012°08'0 0.0
2014-Sep-15 19:17N 54°09' E 012°08'0 0.0
2014-Sep-15 18:20N 54°09' E 012°08'0 0.0
2014-Sep-15 17:26N 54°09' E 012°08'0 0.0
2014-Sep-15 16:32N 54°09' E 012°08'0 0.0
2014-Sep-15 15:14N 54°09' E 012°08'0 0.0
2014-Sep-15 14:32N 54°09' E 012°08'0 0.0
2014-Sep-15 13:26N 54°09' E 012°08'0 0.0
2014-Sep-15 12:26N 54°09' E 012°08'0 0.0
2014-Sep-15 11:32N 54°09' E 012°08'0 0.0
2014-Sep-15 10:32N 54°09' E 012°08'0 0.0
2014-Sep-15 09:24N 54°09' E 012°08'2 2.9
2014-Sep-15 08:33N 54°12' E 012°05'6 5.6
2014-Sep-15 07:33N 54°15' E 011°58'2 1.7
2014-Sep-15 06:33N 54°14' E 011°56'0 0.0
2014-Sep-15 05:33N 54°14' E 011°56'0 0.1
2014-Sep-15 04:30N 54°14' E 011°56'0 0.0
2014-Sep-15 03:33N 54°14' E 011°56'0 0.0
2014-Sep-15 02:30N 54°14' E 011°56'0 0.0
2014-Sep-15 01:33N 54°14' E 011°56'0 0.0
2014-Sep-15 00:27N 54°14' E 011°56'0 0.0
2014-Sep-14 23:33N 54°14' E 011°56'0 0.0
2014-Sep-14 22:33N 54°14' E 011°56'0 0.0
2014-Sep-14 21:33N 54°14' E 011°56'0 0.0
2014-Sep-14 20:33N 54°14' E 011°56'0 0.0
2014-Sep-14 19:33N 54°14' E 011°56'0 0.0
2014-Sep-14 18:33N 54°14' E 011°56'0 0.0
2014-Sep-14 17:33N 54°14' E 011°56'0 0.0
2014-Sep-14 16:27N 54°14' E 011°56'0 0.0
2014-Sep-14 15:30N 54°14' E 011°56'0 0.0
2014-Sep-14 14:33N 54°14' E 011°56'0 0.0
2014-Sep-14 13:33N 54°14' E 011°56'0 0.0
2014-Sep-14 12:33N 54°14' E 011°56'0 0.0
2014-Sep-14 11:33N 54°14' E 011°56'0 0.0
2014-Sep-14 10:30N 54°14' E 011°56'0 0.0
2014-Sep-14 09:33N 54°14' E 011°56'0 0.0
2014-Sep-14 08:33N 54°14' E 011°56'0 0.0
2014-Sep-14 07:33N 54°14' E 011°56'0 0.0
2014-Sep-14 06:33N 54°14' E 011°56'0 0.0
2014-Sep-14 05:30N 54°14' E 011°56'0 0.0
2014-Sep-14 04:24N 54°14' E 011°56'0 0.0
2014-Sep-14 03:33N 54°14' E 011°56'0 0.0
2014-Sep-14 02:33N 54°14' E 011°56'0 0.0
2014-Sep-14 01:27N 54°14' E 011°56'11 2.9
2014-Sep-13 21:34N 54°25' E 011°59'1110.7
2014-Sep-13 20:33N 54°32' E 012°14'1212.0
2014-Sep-13 19:34N 54°41' E 012°28'1312.8
2014-Sep-13 18:33N 54°47' E 012°46'1312.7
2014-Sep-13 17:34N 54°52' E 013°07'1312.8
2014-Sep-13 16:33N 54°57' E 013°27'1211.7
2014-Sep-13 15:34N 55°00' E 013°47'1512.1
2014-Sep-13 14:19N 55°08' E 014°09'1112.9
2014-Sep-13 13:27N 55°17' E 014°22'1112.6
2014-Sep-13 12:33N 55°25' E 014°34'9212.5
2014-Sep-13 05:11N 55°54' E 017°09'812.1
2014-Sep-13 04:33N 55°56' E 017°22'1212.1
2014-Sep-13 03:33N 55°60' E 017°43'1412.2
2014-Sep-13 02:22N 56°08' E 018°05'26812.2
2014-Sep-12 04:29N 59°37' E 023°17'1112.4
2014-Sep-12 03:34N 59°41' E 023°39'1212.4
2014-Sep-12 02:34N 59°44' E 024°02'1312.5
2014-Sep-12 01:33N 59°47' E 024°26'5012.2
2014-Sep-11 21:26N 59°57' E 026°05'1112.1
2014-Sep-11 20:32N 60°00' E 026°26'1212.1
2014-Sep-11 19:33N 60°00' E 026°49'1211.6
2014-Sep-11 18:33N 60°02' E 027°12'  

Dump ship's entire track history